PDT,Max TemperatureF,Mean TemperatureF,Min TemperatureF,Max Dew PointF,MeanDew PointF,Min DewpointF,Max Humidity, Mean Humidity, Min Humidity, Max Sea Level PressureIn, Mean Sea Level PressureIn, Min Sea Level PressureIn, Max VisibilityMiles, Mean VisibilityMiles, Min VisibilityMiles, Max Wind SpeedMPH, Mean Wind SpeedMPH, Max Gust SpeedMPH,PrecipitationIn, CloudCover, Events, WindDirDegrees
2013-4-1,67,59,50,54,51,47,100,76,52,30.15,30.11,30.06,10,10,3,15,4,20,0.05,6,Rain,295
2013-4-2,72,58,43,54,49,42,93,73,53,30.18,30.14,30.07,10,10,9,13,4,16,0.00,1,,267
2013-4-3,77,62,47,51,48,45,100,69,38,30.14,30.08,29.96,10,6,0,17,3,21,0.00,4,Fog,313
2013-4-4,68,61,53,56,52,48,86,75,63,30.11,30.06,29.99,10,10,6,20,8,22,0.15,7,Rain,258
2013-4-5,66,60,53,53,50,48,93,75,56,30.18,30.15,30.12,10,10,8,17,7,21,T,6,,270
2013-4-6,67,59,51,54,51,49,89,74,58,30.19,30.16,30.13,10,10,10,15,6,18,0.00,6,,251
2013-4-7,66,58,50,54,50,45,100,78,56,30.17,30.04,29.84,10,9,2,29,11,37,0.20,7,Rain,242
2013-4-8,67,57,46,52,37,22,80,50,19,30.01,29.89,29.81,10,10,9,25,12,36,0.00,2,Rain,297
2013-4-9,75,65,54,35,29,24,47,32,16,30.08,30.05,30.01,10,10,10,23,12,32,0.00,0,,355
2013-4-10,86,67,48,51,44,35,86,56,26,30.17,30.09,30.03,10,10,10,20,4,24,0.00,0,,271
2013-4-11,72,61,49,50,48,45,89,65,41,30.04,29.96,29.85,10,10,10,17,5,21,0.00,1,,276
2013-4-12,80,62,43,47,44,40,96,63,29,29.92,29.87,29.81,10,10,8,18,4,22,0.00,0,,280
2013-4-13,70,59,47,47,45,43,86,65,44,29.91,29.87,29.83,10,10,9,16,8,21,0.00,0,,260
2013-4-14,69,56,43,46,42,36,89,60,30,29.93,29.89,29.84,10,10,9,22,8,29,0.00,1,,260
2013-4-15,61,53,45,50,41,34,100,71,42,29.95,29.89,29.85,10,10,3,28,11,35,T,5,Rain,241
2013-4-16,68,52,36,37,28,15,85,50,14,30.14,30.05,29.96,10,10,10,21,7,32,0.00,0,,322
2013-4-17,70,59,47,35,24,16,56,35,13,30.25,30.20,30.15,10,10,10,21,11,28,0.00,0,,349
2013-4-18,77,59,40,38,33,26,62,40,18,30.27,30.23,30.17,10,10,10,16,5,23,0.00,0,,356
2013-4-19,84,65,45,48,41,38,71,47,22,30.23,30.15,30.06,10,10,10,17,4,22,0.00,0,,276
2013-4-20,82,66,50,48,43,33,83,51,18,30.12,30.04,29.97,10,10,10,15,3,18,0.00,0,,297
2013-4-21,89,67,45,44,39,28,77,45,13,30.04,29.98,29.92,10,10,10,12,4,16,0.00,0,,320
2013-4-22,89,70,51,44,39,29,71,41,11,29.97,29.91,29.83,10,10,9,13,5,17,0.00,0,,348
2013-4-23,84,69,53,46,30,18,72,42,11,29.94,29.88,29.83,10,10,9,17,5,22,0.00,0,,309
2013-4-24,76,61,46,49,45,39,83,56,29,29.94,29.86,29.82,10,10,10,22,8,26,0.00,0,,291
2013-4-25,71,61,50,50,48,46,89,68,47,30.14,30.03,29.94,10,10,10,21,12,25,0.00,2,,282
2013-4-26,78,65,51,50,48,46,89,64,38,30.22,30.17,30.13,10,10,10,16,4,18,0.00,3,,269
2013-4-27,86,67,48,51,47,44,93,61,29,30.23,30.15,30.06,10,9,7,16,6,20,0.00,1,,274
2013-4-28,91,70,49,53,49,45,86,54,21,30.07,29.97,29.87,10,10,8,13,2,17,0.00,0,,292
2013-4-29,91,73,55,53,47,38,77,49,20,29.89,29.82,29.75,10,10,10,16,5,21,0.00,0,,285
2013-4-30,86,69,51,51,34,15,83,46,9,29.84,29.81,29.77,10,10,10,15,4,24,0.00,0,,347